Time;durP1;ratioP1;P1;durP2;ratioP2;P2;SDS_P1;SDS_P2;PMS_P1;PMS_P2;Temp;Humidity;BMP_temperature;BMP_pressure;BME280_temperature;BME280_humidity;BME280_pressure;Samples;Min_cycle;Max_cycle;Signal;HPM_P1;HPM_P2
2023/09/15 00:01:00;;;;;;;4.38;3.22;;;16.10;99.90;;;;;;4934262;29;20042;-75
2023/09/15 00:03:26;;;;;;;4.78;3.03;;;16.00;99.90;;;;;;4950718;29;20020;-75
2023/09/15 00:05:51;;;;;;;4.05;3.08;;;16.00;99.90;;;;;;4934824;29;20031;-75
2023/09/15 00:08:17;;;;;;;6.00;3.15;;;15.90;99.90;;;;;;4939931;29;20019;-76
2023/09/15 00:10:44;;;;;;;6.93;3.22;;;15.90;99.90;;;;;;4961872;28;20478;-75
2023/09/15 00:13:10;;;;;;;8.02;3.25;;;15.80;99.90;;;;;;4953308;28;20034;-74
2023/09/15 00:15:35;;;;;;;5.88;3.08;;;15.80;99.90;;;;;;4935937;29;20023;-74
2023/09/15 00:18:01;;;;;;;4.13;2.88;;;15.80;99.90;;;;;;4934191;29;20031;-74
2023/09/15 00:20:27;;;;;;;5.43;2.83;;;15.80;99.90;;;;;;4930445;29;20075;-74
2023/09/15 00:22:54;;;;;;;6.30;3.67;;;15.80;99.90;;;;;;4933465;29;20028;-75
2023/09/15 00:25:22;;;;;;;4.78;3.40;;;15.80;99.90;;;;;;4933647;29;20048;-75
2023/09/15 00:27:51;;;;;;;4.18;2.90;;;15.70;99.90;;;;;;4946381;23;20019;-83
2023/09/15 00:30:18;;;;;;;4.28;3.00;;;15.70;99.90;;;;;;4952576;28;20113;-83
2023/09/15 00:32:46;;;;;;;6.32;2.92;;;15.70;99.90;;;;;;4946304;28;20027;-84
2023/09/15 00:35:12;;;;;;;6.78;3.30;;;15.70;99.90;;;;;;4952741;28;20027;-83
2023/09/15 00:37:38;;;;;;;6.00;3.47;;;15.70;99.90;;;;;;4952189;28;20039;-83
2023/09/15 00:40:08;;;;;;;7.38;3.30;;;15.70;99.90;;;;;;4952721;28;20024;-83
2023/09/15 00:42:34;;;;;;;5.10;2.95;;;15.70;99.90;;;;;;4950004;28;20070;-83
2023/09/15 00:45:04;;;;;;;4.80;3.30;;;15.60;99.90;;;;;;4953269;28;20032;-83
2023/09/15 00:47:38;;;;;;;4.05;2.72;;;15.60;99.90;;;;;;4952771;28;20034;-85
2023/09/15 00:50:05;;;;;;;3.63;2.50;;;15.60;99.90;;;;;;4966477;28;20031;-85
2023/09/15 00:52:33;;;;;;;7.03;3.10;;;15.60;99.90;;;;;;4955382;28;20023;-84
2023/09/15 00:54:59;;;;;;;5.28;2.97;;;15.60;99.90;;;;;;4954075;28;20024;-84
2023/09/15 00:57:25;;;;;;;5.68;2.92;;;15.50;99.90;;;;;;4951670;28;20031;-86
2023/09/15 00:59:52;;;;;;;8.13;3.85;;;15.50;99.90;;;;;;4964707;28;20077;-84
2023/09/15 01:02:18;;;;;;;4.82;3.38;;;15.40;99.90;;;;;;4956352;28;20094;-85
2023/09/15 01:04:44;;;;;;;5.40;3.33;;;15.40;99.90;;;;;;4957567;28;20031;-84
2023/09/15 01:07:10;;;;;;;5.85;3.17;;;15.40;99.90;;;;;;4956664;28;20108;-85
2023/09/15 01:09:36;;;;;;;4.80;3.20;;;15.40;99.90;;;;;;4954138;28;20594;-86
2023/09/15 01:12:04;;;;;;;7.65;3.05;;;15.40;99.90;;;;;;4955691;28;20047;-84
2023/09/15 01:14:30;;;;;;;4.63;3.00;;;15.40;99.90;;;;;;4952725;28;20027;-85
2023/09/15 01:16:56;;;;;;;5.45;2.85;;;15.40;99.90;;;;;;4952438;28;20455;-84
2023/09/15 01:19:43;;;;;;;6.10;3.80;;;15.40;99.90;;;;;;4957848;28;20023;-85
2023/09/15 01:22:44;;;;;;;7.55;2.80;;;15.30;99.90;;;;;;4958660;28;20034;-84
2023/09/15 01:25:42;;;;;;;5.00;2.92;;;15.30;99.90;;;;;;4925000;28;20612;-85
2023/09/15 01:28:20;;;;;;;6.03;2.80;;;15.30;99.90;;;;;;4934744;28;20059;-85
2023/09/15 01:30:49;;;;;;;5.75;3.33;;;15.30;99.90;;;;;;4956159;28;20034;-85
2023/09/15 01:33:16;;;;;;;7.13;3.60;;;15.20;99.90;;;;;;4956838;28;20023;-85
2023/09/15 01:35:42;;;;;;;6.65;3.40;;;15.20;99.90;;;;;;4954170;28;20071;-84
2023/09/15 01:38:07;;;;;;;7.38;3.58;;;15.20;99.90;;;;;;4958481;28;20031;-84
2023/09/15 01:40:33;;;;;;;6.10;3.28;;;15.20;99.90;;;;;;4957391;28;20031;-85
2023/09/15 01:42:59;;;;;;;6.97;3.25;;;15.10;99.90;;;;;;4956033;28;20855;-84
2023/09/15 01:45:24;;;;;;;5.68;3.30;;;15.10;99.90;;;;;;4957355;28;20050;-85
2023/09/15 01:47:52;;;;;;;6.75;3.58;;;15.10;99.90;;;;;;4972236;28;20492;-85
2023/09/15 01:50:18;;;;;;;4.72;2.92;;;15.00;99.90;;;;;;4955957;28;20078;-83
2023/09/15 01:52:44;;;;;;;5.45;3.03;;;15.00;99.90;;;;;;4957988;28;20027;-86
2023/09/15 01:55:11;;;;;;;5.80;2.92;;;15.00;99.90;;;;;;4954679;28;20080;-85
2023/09/15 01:57:37;;;;;;;5.85;3.40;;;15.00;99.90;;;;;;4969254;28;20039;-84
2023/09/15 02:00:04;;;;;;;4.20;2.92;;;14.90;99.90;;;;;;4956140;28;20035;-86
2023/09/15 02:02:29;;;;;;;4.03;2.90;;;14.90;99.90;;;;;;4973157;28;20027;-84
2023/09/15 02:04:55;;;;;;;5.18;3.50;;;14.90;99.90;;;;;;4968537;28;20741;-85
2023/09/15 02:07:20;;;;;;;7.10;3.60;;;14.90;99.90;;;;;;4956712;28;20031;-86
2023/09/15 02:09:46;;;;;;;4.13;2.72;;;14.90;99.90;;;;;;4957539;28;20042;-87
2023/09/15 02:12:12;;;;;;;11.63;3.67;;;14.90;99.90;;;;;;4957213;28;20035;-86
2023/09/15 02:14:37;;;;;;;5.90;3.42;;;14.80;99.90;;;;;;4957868;28;20035;-85
2023/09/15 02:17:05;;;;;;;5.97;3.28;;;14.80;99.90;;;;;;4956908;28;20176;-86
2023/09/15 02:19:31;;;;;;;4.47;2.92;;;14.70;99.90;;;;;;4952692;28;20043;-85
2023/09/15 02:21:58;;;;;;;4.82;3.03;;;14.70;99.90;;;;;;4957376;28;20031;-85
2023/09/15 02:24:23;;;;;;;5.10;3.22;;;14.70;99.90;;;;;;4953666;28;20051;-85
2023/09/15 02:26:49;;;;;;;5.07;3.55;;;14.70;99.90;;;;;;4970167;28;20066;-85
2023/09/15 02:29:15;;;;;;;7.43;3.53;;;14.60;99.90;;;;;;4971147;28;20035;-87
2023/09/15 02:31:41;;;;;;;6.30;3.70;;;14.70;99.90;;;;;;4969316;28;20039;-85
2023/09/15 02:34:07;;;;;;;9.13;3.47;;;14.60;99.90;;;;;;4956224;28;20050;-85
2023/09/15 02:36:32;;;;;;;4.72;3.40;;;14.60;99.90;;;;;;4953934;28;20119;-87
2023/09/15 02:38:58;;;;;;;4.82;3.35;;;14.60;99.90;;;;;;4956928;28;20392;-87
2023/09/15 02:41:23;;;;;;;4.93;3.30;;;14.60;99.90;;;;;;4954083;28;20046;-85
2023/09/15 02:43:49;;;;;;;4.97;3.08;;;14.50;99.90;;;;;;4956993;28;20042;-87
2023/09/15 02:46:15;;;;;;;5.80;3.75;;;14.50;99.90;;;;;;4955984;28;20031;-87
2023/09/15 02:48:42;;;;;;;10.73;3.47;;;14.60;99.90;;;;;;4955249;28;20381;-87
2023/09/15 02:51:08;;;;;;;5.03;3.25;;;14.50;99.90;;;;;;4954586;28;20027;-85
2023/09/15 02:53:33;;;;;;;4.63;3.55;;;14.50;99.90;;;;;;4974820;28;20460;-87
2023/09/15 02:56:04;;;;;;;5.00;3.40;;;14.50;99.90;;;;;;4957808;28;20033;-87
2023/09/15 02:58:31;;;;;;;6.45;3.15;;;14.50;99.90;;;;;;4955531;28;20413;-87
2023/09/15 03:00:57;;;;;;;7.22;3.67;;;14.50;99.90;;;;;;4955391;28;20411;-86
2023/09/15 03:03:23;;;;;;;4.65;3.38;;;14.40;99.90;;;;;;4961438;28;20045;-86
2023/09/15 03:05:49;;;;;;;6.47;3.50;;;14.50;99.90;;;;;;4957766;28;20030;-87
2023/09/15 03:08:14;;;;;;;8.68;3.55;;;14.50;99.90;;;;;;4959450;28;20472;-87
2023/09/15 03:10:40;;;;;;;6.60;3.30;;;14.40;99.90;;;;;;4950908;28;20019;-87
2023/09/15 03:13:06;;;;;;;5.95;3.55;;;14.40;99.90;;;;;;4961077;28;20037;-86
2023/09/15 03:15:33;;;;;;;6.00;3.55;;;14.40;99.90;;;;;;4961361;28;20062;-87
2023/09/15 03:17:58;;;;;;;5.43;3.63;;;14.40;99.90;;;;;;4960316;28;20027;-87
2023/09/15 03:20:24;;;;;;;6.13;3.58;;;14.40;99.90;;;;;;4961750;28;20067;-87
2023/09/15 03:22:51;;;;;;;5.88;3.72;;;14.30;99.90;;;;;;4976055;28;20039;-87
2023/09/15 03:25:17;;;;;;;5.78;3.47;;;14.30;99.90;;;;;;4966241;28;20042;-87
2023/09/15 03:27:43;;;;;;;5.05;3.88;;;14.30;99.90;;;;;;4962183;28;20024;-86
2023/09/15 03:30:09;;;;;;;5.00;3.28;;;14.30;99.90;;;;;;4980510;28;20027;-85
2023/09/15 03:32:35;;;;;;;5.70;3.40;;;14.20;99.90;;;;;;4968788;28;20027;-85
2023/09/15 03:35:02;;;;;;;8.00;3.70;;;14.20;99.90;;;;;;4979478;28;20038;-86
2023/09/15 03:37:30;;;;;;;6.43;3.38;;;14.20;99.90;;;;;;4964653;28;20050;-86
2023/09/15 03:39:56;;;;;;;9.02;3.50;;;14.20;99.90;;;;;;4964738;28;20043;-85
2023/09/15 03:42:25;;;;;;;8.02;4.57;;;14.20;99.90;;;;;;4962264;28;20548;-84
2023/09/15 03:44:50;;;;;;;6.85;3.97;;;14.10;99.90;;;;;;4964187;28;20042;-85
2023/09/15 03:47:16;;;;;;;8.98;4.45;;;14.10;99.90;;;;;;4953843;28;20023;-84
2023/09/15 03:49:42;;;;;;;7.45;3.50;;;14.10;99.90;;;;;;4952047;28;20387;-85
2023/09/15 03:52:08;;;;;;;6.57;3.78;;;14.10;99.90;;;;;;4952936;28;20505;-85
2023/09/15 03:54:34;;;;;;;7.45;3.80;;;14.10;99.90;;;;;;4952971;28;20396;-85
2023/09/15 03:56:59;;;;;;;5.97;4.10;;;14.10;99.90;;;;;;4956459;28;20031;-85
2023/09/15 03:59:25;;;;;;;6.25;3.35;;;14.10;99.90;;;;;;4953235;28;20054;-86
2023/09/15 04:01:50;;;;;;;8.63;4.28;;;14.10;99.90;;;;;;4953306;28;20039;-85
2023/09/15 04:04:16;;;;;;;8.05;3.33;;;14.10;99.90;;;;;;4953434;28;21533;-85
2023/09/15 04:06:42;;;;;;;8.07;4.38;;;14.00;99.90;;;;;;4951565;28;20034;-84
2023/09/15 04:09:12;;;;;;;5.78;3.42;;;14.00;99.90;;;;;;4958243;28;20071;-84
2023/09/15 04:11:39;;;;;;;7.43;4.38;;;14.00;99.90;;;;;;4953622;28;20078;-86
2023/09/15 04:14:04;;;;;;;7.65;4.80;;;14.00;99.90;;;;;;4955756;28;20027;-85
2023/09/15 04:16:30;;;;;;;8.25;4.72;;;14.00;99.90;;;;;;4949707;28;20388;-86
2023/09/15 04:18:56;;;;;;;10.98;5.78;;;14.00;99.90;;;;;;4953510;28;20044;-85
2023/09/15 04:21:22;;;;;;;9.80;5.18;;;14.10;99.90;;;;;;4967273;28;20445;-85
2023/09/15 04:23:48;;;;;;;7.03;4.72;;;14.00;99.90;;;;;;4953705;28;20054;-85
2023/09/15 04:26:13;;;;;;;8.10;4.28;;;14.00;99.90;;;;;;4953927;28;20054;-86
2023/09/15 04:28:39;;;;;;;9.32;4.85;;;14.00;99.90;;;;;;4954738;28;20550;-84
2023/09/15 04:31:05;;;;;;;7.45;5.18;;;14.00;99.90;;;;;;4954769;28;20050;-86
2023/09/15 04:33:30;;;;;;;10.50;5.68;;;14.00;99.90;;;;;;4952884;28;20082;-86
2023/09/15 04:35:56;;;;;;;8.93;5.07;;;14.00;99.90;;;;;;4954112;28;20058;-85
2023/09/15 04:38:23;;;;;;;7.85;5.15;;;13.90;99.90;;;;;;4954304;28;20067;-86
2023/09/15 04:40:48;;;;;;;9.93;5.28;;;13.90;99.90;;;;;;4954579;28;20031;-87
2023/09/15 04:43:17;;;;;;;9.60;5.30;;;13.90;99.90;;;;;;4953998;28;20031;-85
2023/09/15 04:45:44;;;;;;;6.93;4.97;;;14.00;99.90;;;;;;4954096;28;20056;-84
2023/09/15 04:48:12;;;;;;;9.60;4.43;;;13.90;99.90;;;;;;4953640;28;20037;-84
2023/09/15 04:50:38;;;;;;;8.25;5.47;;;13.90;99.90;;;;;;4956972;28;20487;-85
2023/09/15 04:53:06;;;;;;;9.85;5.03;;;13.90;99.90;;;;;;4951963;28;20173;-85
2023/09/15 04:55:32;;;;;;;8.80;5.20;;;13.90;99.90;;;;;;4971092;28;20044;-87
2023/09/15 04:57:58;;;;;;;7.72;4.78;;;13.80;99.90;;;;;;4957858;28;20043;-87
2023/09/15 05:00:26;;;;;;;10.50;5.22;;;13.80;99.90;;;;;;4957371;28;20027;-87
2023/09/15 05:02:53;;;;;;;9.40;5.35;;;13.80;99.90;;;;;;4972678;28;20031;-87
2023/09/15 05:05:19;;;;;;;10.60;5.80;;;13.80;99.90;;;;;;4957886;28;20028;-86
2023/09/15 05:07:44;;;;;;;7.57;4.65;;;13.80;99.90;;;;;;4958393;28;20027;-86
2023/09/15 05:10:11;;;;;;;8.32;5.15;;;13.80;99.90;;;;;;4967682;28;20058;-87
2023/09/15 05:12:37;;;;;;;7.80;4.30;;;13.70;99.90;;;;;;4954962;28;20031;-86
2023/09/15 05:15:03;;;;;;;8.98;4.95;;;13.70;99.90;;;;;;4962938;28;20146;-86
2023/09/15 05:17:29;;;;;;;6.60;4.05;;;13.70;99.90;;;;;;4960425;28;20035;-86
2023/09/15 05:19:56;;;;;;;8.00;4.75;;;13.60;99.90;;;;;;4959603;28;20380;-86
2023/09/15 05:22:22;;;;;;;8.77;4.57;;;13.70;99.90;;;;;;4958589;28;20031;-87
2023/09/15 05:24:48;;;;;;;8.43;4.80;;;13.70;99.90;;;;;;4959772;28;20031;-87
2023/09/15 05:27:13;;;;;;;11.38;4.90;;;13.70;99.90;;;;;;4960902;28;20062;-86
2023/09/15 05:29:39;;;;;;;8.65;4.40;;;13.80;99.90;;;;;;4966506;28;20046;-85
2023/09/15 05:32:05;;;;;;;10.02;4.97;;;13.70;99.90;;;;;;4960772;28;20031;-85
2023/09/15 05:34:30;;;;;;;9.68;4.13;;;13.70;99.90;;;;;;4960809;28;20023;-85
2023/09/15 05:36:56;;;;;;;10.65;4.35;;;13.70;99.90;;;;;;4963310;28;20023;-86
2023/09/15 05:39:22;;;;;;;8.32;4.95;;;13.80;99.90;;;;;;4961716;28;20468;-85
2023/09/15 05:41:48;;;;;;;6.57;4.15;;;13.80;99.90;;;;;;4960640;28;20035;-86
2023/09/15 05:44:16;;;;;;;6.75;4.72;;;13.80;99.90;;;;;;4964907;28;20038;-86
2023/09/15 05:46:42;;;;;;;9.75;4.72;;;13.80;99.90;;;;;;4978504;28;20082;-85
2023/09/15 05:49:08;;;;;;;8.05;4.80;;;13.90;99.90;;;;;;4970862;28;20040;-86
2023/09/15 05:51:34;;;;;;;6.78;4.78;;;13.90;99.90;;;;;;4969447;28;20065;-85
2023/09/15 05:53:59;;;;;;;10.63;5.20;;;14.00;99.90;;;;;;4967232;28;20031;-86
2023/09/15 05:56:25;;;;;;;10.57;5.57;;;14.00;99.90;;;;;;4964679;28;20022;-85
2023/09/15 05:58:51;;;;;;;9.40;5.80;;;14.00;99.90;;;;;;4980728;23;20055;-79
2023/09/15 06:01:19;;;;;;;8.88;4.93;;;14.10;99.90;;;;;;4973184;28;20379;-77
2023/09/15 06:03:45;;;;;;;9.10;5.03;;;14.10;99.90;;;;;;4972340;28;20019;-77
2023/09/15 06:06:11;;;;;;;8.35;5.13;;;14.20;99.90;;;;;;4974455;28;20050;-75
2023/09/15 06:08:37;;;;;;;11.38;6.13;;;14.30;99.90;;;;;;4975698;28;20031;-78
2023/09/15 06:11:03;;;;;;;8.50;5.20;;;14.30;99.90;;;;;;4973686;28;20118;-76
2023/09/15 06:13:29;;;;;;;9.93;5.70;;;14.30;99.90;;;;;;4972902;28;20398;-75
2023/09/15 06:15:55;;;;;;;9.90;5.28;;;14.40;99.90;;;;;;4991313;28;20113;-74
2023/09/15 06:18:21;;;;;;;11.38;5.22;;;14.40;99.90;;;;;;4975055;28;20031;-75
2023/09/15 06:20:48;;;;;;;10.95;5.35;;;14.40;99.90;;;;;;4967161;28;20031;-75
2023/09/15 06:23:13;;;;;;;11.38;6.13;;;14.40;99.90;;;;;;4970648;28;20023;-75
2023/09/15 06:25:40;;;;;;;12.43;5.63;;;14.50;99.90;;;;;;4974739;28;20504;-72
2023/09/15 06:28:07;;;;;;;9.25;5.82;;;14.50;99.90;;;;;;4976455;28;20036;-74
2023/09/15 06:30:33;;;;;;;10.77;6.22;;;14.60;99.90;;;;;;4978085;28;20025;-72
2023/09/15 06:32:58;;;;;;;11.40;6.25;;;14.60;99.90;;;;;;4973418;28;20015;-73
2023/09/15 06:35:24;;;;;;;11.10;6.65;;;14.60;99.90;;;;;;4990976;28;20023;-72
2023/09/15 06:37:50;;;;;;;12.98;7.05;;;14.70;99.90;;;;;;4968554;28;20146;-73
2023/09/15 06:40:16;;;;;;;15.18;6.75;;;14.70;99.90;;;;;;4966818;28;20031;-74
2023/09/15 06:42:41;;;;;;;11.95;6.28;;;14.80;99.90;;;;;;4968835;28;20037;-75
2023/09/15 06:45:07;;;;;;;10.65;6.07;;;14.80;99.90;;;;;;4970702;28;20022;-72
2023/09/15 06:47:33;;;;;;;12.68;7.53;;;14.90;99.90;;;;;;4973025;28;20031;-73
2023/09/15 06:49:59;;;;;;;9.13;6.47;;;14.80;99.90;;;;;;4970788;28;20497;-74
2023/09/15 06:52:24;;;;;;;10.82;7.32;;;14.70;99.90;;;;;;4968777;28;20512;-73
2023/09/15 06:54:50;;;;;;;10.60;6.75;;;14.80;99.90;;;;;;4971723;28;20023;-73
2023/09/15 06:57:15;;;;;;;13.60;6.75;;;14.80;99.90;;;;;;4964832;23;20067;-72
2023/09/15 06:59:41;;;;;;;12.73;6.72;;;14.90;99.90;;;;;;4949560;28;20031;-73
2023/09/15 07:02:06;;;;;;;11.40;7.78;;;15.00;99.90;;;;;;4949515;28;20545;-73
2023/09/15 07:04:32;;;;;;;13.25;6.90;;;15.00;99.90;;;;;;4949300;28;20359;-72
2023/09/15 07:06:58;;;;;;;11.23;6.88;;;15.10;99.90;;;;;;4949343;28;20108;-71
2023/09/15 07:09:24;;;;;;;13.23;7.32;;;15.20;99.90;;;;;;4948039;28;20023;-70
2023/09/15 07:11:50;;;;;;;10.65;6.75;;;15.20;99.90;;;;;;4941394;28;20024;-72
2023/09/15 07:14:16;;;;;;;11.05;6.93;;;15.20;99.90;;;;;;4947348;28;20057;-72
2023/09/15 07:16:43;;;;;;;10.98;7.05;;;15.20;99.90;;;;;;4946569;28;20050;-72
2023/09/15 07:19:09;;;;;;;12.88;6.70;;;15.20;99.90;;;;;;4949207;28;20401;-73
2023/09/15 07:21:40;;;;;;;13.50;6.53;;;15.20;99.90;;;;;;4944900;28;20023;-73
2023/09/15 07:24:06;;;;;;;11.88;7.32;;;15.30;99.90;;;;;;4949203;28;20225;-73
2023/09/15 07:26:32;;;;;;;17.08;6.90;;;15.40;99.90;;;;;;4942824;28;20036;-76
2023/09/15 07:28:58;;;;;;;12.70;7.32;;;15.40;99.90;;;;;;4944762;28;20050;-76
2023/09/15 07:31:23;;;;;;;11.50;6.78;;;15.50;99.90;;;;;;4943818;28;20485;-76
2023/09/15 07:33:49;;;;;;;11.00;6.18;;;15.50;99.90;;;;;;4962547;28;20059;-76
2023/09/15 07:36:14;;;;;;;8.30;6.00;;;15.60;99.90;;;;;;4952219;28;20553;-76
2023/09/15 07:38:40;;;;;;;8.95;6.43;;;15.60;99.90;;;;;;4948158;28;20114;-76
2023/09/15 07:41:06;;;;;;;11.55;6.25;;;15.70;99.90;;;;;;4951145;28;20027;-76
2023/09/15 07:43:32;;;;;;;12.13;6.03;;;15.80;99.90;;;;;;4943912;28;20031;-76
2023/09/15 07:45:57;;;;;;;12.07;6.72;;;15.80;99.90;;;;;;4946180;28;20486;-76
2023/09/15 07:48:23;;;;;;;9.82;6.95;;;15.90;99.90;;;;;;4950638;28;20039;-70
2023/09/15 07:50:50;;;;;;;11.60;7.22;;;16.00;99.90;;;;;;4955117;28;20414;-71
2023/09/15 07:53:16;;;;;;;11.63;7.32;;;16.10;99.90;;;;;;4951196;28;20058;-77
2023/09/15 07:55:42;;;;;;;10.43;6.93;;;16.10;99.90;;;;;;4947774;28;20127;-76
2023/09/15 07:58:07;;;;;;;14.55;8.23;;;16.20;99.90;;;;;;4950850;28;20217;-75
2023/09/15 08:00:33;;;;;;;11.32;7.57;;;16.30;99.90;;;;;;4950212;28;20023;-75
2023/09/15 08:02:59;;;;;;;14.35;7.20;;;16.40;99.90;;;;;;4950906;28;20497;-74
2023/09/15 08:05:24;;;;;;;11.38;7.05;;;16.40;99.90;;;;;;4949312;28;20031;-74
2023/09/15 08:07:50;;;;;;;12.55;7.53;;;16.50;99.90;;;;;;4950445;28;20066;-74
2023/09/15 08:10:18;;;;;;;12.50;7.65;;;16.50;99.90;;;;;;4947785;28;20442;-73
2023/09/15 08:12:44;;;;;;;12.30;7.40;;;16.60;99.90;;;;;;4948279;28;20030;-74
2023/09/15 08:15:10;;;;;;;15.27;7.32;;;16.70;99.90;;;;;;4947423;28;20634;-74
2023/09/15 08:17:36;;;;;;;18.10;7.93;;;16.70;99.90;;;;;;4950347;28;20045;-74
2023/09/15 08:20:03;;;;;;;13.50;8.07;;;16.80;99.90;;;;;;4952858;28;20034;-74
2023/09/15 08:22:30;;;;;;;11.82;7.50;;;16.80;99.90;;;;;;4949573;28;20023;-74
2023/09/15 08:24:55;;;;;;;12.55;7.55;;;16.90;99.90;;;;;;4944262;28;20332;-73
2023/09/15 08:27:21;;;;;;;13.05;6.95;;;17.00;99.90;;;;;;4951364;28;20074;-73
2023/09/15 08:29:47;;;;;;;12.95;7.72;;;17.10;99.90;;;;;;4949347;28;20367;-74
2023/09/15 08:32:13;;;;;;;12.85;7.97;;;17.10;99.90;;;;;;4949998;28;20114;-74
2023/09/15 08:34:41;;;;;;;14.55;8.32;;;17.20;99.90;;;;;;4953772;28;20023;-74
2023/09/15 08:37:06;;;;;;;10.93;7.50;;;17.20;99.90;;;;;;4952262;28;20123;-75
2023/09/15 08:39:32;;;;;;;10.88;7.22;;;17.30;99.90;;;;;;4952652;28;20458;-71
2023/09/15 08:42:01;;;;;;;9.23;6.47;;;17.40;99.90;;;;;;4952538;28;20363;-76
2023/09/15 08:44:32;;;;;;;10.02;7.00;;;17.50;99.90;;;;;;4952008;28;20039;-75
2023/09/15 08:47:00;;;;;;;12.80;7.40;;;17.50;99.90;;;;;;4950112;28;20110;-76
2023/09/15 08:49:27;;;;;;;12.80;8.18;;;17.60;99.90;;;;;;4952909;28;20023;-75
2023/09/15 08:51:55;;;;;;;15.60;7.55;;;17.70;99.90;;;;;;4954635;28;20023;-76
2023/09/15 08:54:21;;;;;;;13.68;7.07;;;17.80;99.90;;;;;;4952578;28;20043;-75
2023/09/15 08:56:47;;;;;;;12.73;7.82;;;17.80;99.90;;;;;;4947565;28;20069;-75
2023/09/15 08:59:15;;;;;;;12.23;7.63;;;17.80;99.90;;;;;;4948338;28;20043;-75
2023/09/15 09:01:42;;;;;;;9.55;7.03;;;17.90;99.90;;;;;;4951235;28;20031;-75
2023/09/15 09:04:07;;;;;;;12.43;7.70;;;18.00;99.90;;;;;;4948695;28;20078;-77
2023/09/15 09:06:36;;;;;;;12.00;8.07;;;18.10;99.90;;;;;;4953217;28;20486;-77
2023/09/15 09:09:04;;;;;;;10.63;7.22;;;18.10;99.90;;;;;;4951252;28;20372;-76
2023/09/15 09:11:30;;;;;;;12.60;7.97;;;18.20;99.90;;;;;;4954313;28;20019;-77
2023/09/15 09:13:56;;;;;;;11.90;8.23;;;18.20;99.90;;;;;;4949388;28;20028;-76
2023/09/15 09:16:21;;;;;;;13.73;7.68;;;18.30;99.90;;;;;;4950280;28;20079;-74
2023/09/15 09:18:58;;;;;;;11.60;7.32;;;18.40;99.90;;;;;;4949536;28;20485;-77
2023/09/15 09:21:33;;;;;;;11.63;6.63;;;18.40;99.90;;;;;;4944774;28;20027;-75
2023/09/15 09:24:00;;;;;;;14.93;7.53;;;18.50;99.90;;;;;;4940636;28;20136;-75
2023/09/15 09:26:26;;;;;;;9.18;6.45;;;18.60;99.90;;;;;;4946974;28;20074;-75
2023/09/15 09:28:57;;;;;;;16.40;7.05;;;18.60;99.90;;;;;;4943841;28;20040;-75
2023/09/15 09:31:24;;;;;;;10.63;6.35;;;18.70;99.90;;;;;;4943103;28;20114;-76
2023/09/15 09:33:50;;;;;;;11.07;7.07;;;18.70;99.90;;;;;;4940208;28;20024;-75
2023/09/15 09:36:17;;;;;;;11.82;6.57;;;18.80;99.90;;;;;;4946999;28;20430;-76
2023/09/15 09:38:45;;;;;;;11.82;6.75;;;18.90;99.90;;;;;;4946889;28;20053;-75
2023/09/15 09:41:12;;;;;;;12.55;7.03;;;18.90;99.90;;;;;;4954163;28;20435;-73
2023/09/15 09:43:42;;;;;;;10.20;6.78;;;19.00;99.90;;;;;;4946784;28;20082;-72
2023/09/15 09:46:09;;;;;;;11.48;7.22;;;19.00;99.90;;;;;;4950057;28;20511;-71
2023/09/15 09:48:35;;;;;;;10.95;7.47;;;19.10;99.90;;;;;;4949996;28;20042;-71
2023/09/15 09:51:05;;;;;;;15.02;7.38;;;19.20;99.90;;;;;;4948331;28;20090;-71
2023/09/15 09:53:32;;;;;;;11.20;6.68;;;19.30;99.90;;;;;;4951165;28;20037;-73
2023/09/15 09:55:59;;;;;;;11.60;6.95;;;19.40;99.90;;;;;;4950292;28;20043;-71
2023/09/15 09:58:24;;;;;;;15.30;7.82;;;19.50;99.90;;;;;;4951301;28;20114;-70
2023/09/15 10:00:51;;;;;;;12.20;8.52;;;19.50;99.90;;;;;;4948342;28;20118;-71
2023/09/15 10:03:17;;;;;;;11.43;6.95;;;19.60;99.90;;;;;;4949000;28;20031;-70
2023/09/15 10:05:43;;;;;;;14.07;7.00;;;19.70;99.90;;;;;;4947537;28;20036;-72
2023/09/15 10:08:09;;;;;;;11.40;6.78;;;19.80;99.90;;;;;;4954080;28;20024;-70
2023/09/15 10:10:41;;;;;;;9.30;6.32;;;19.80;99.90;;;;;;4952974;28;20031;-71
2023/09/15 10:13:08;;;;;;;9.85;6.55;;;19.90;99.90;;;;;;4949470;28;20050;-70
2023/09/15 10:15:53;;;;;;;8.88;6.35;;;20.00;99.90;;;;;;4952208;28;20043;-71
2023/09/15 10:18:20;;;;;;;11.20;7.20;;;20.10;99.90;;;;;;4952481;28;20031;-70
2023/09/15 10:20:50;;;;;;;9.75;6.13;;;20.20;99.90;;;;;;4954271;28;20114;-70
2023/09/15 10:23:15;;;;;;;10.82;6.28;;;20.30;99.90;;;;;;4953572;28;20520;-71
2023/09/15 10:25:42;;;;;;;10.00;6.82;;;20.30;99.90;;;;;;4952088;28;20047;-71
2023/09/15 10:28:11;;;;;;;10.20;6.05;;;20.40;99.90;;;;;;4951108;29;20099;-71
2023/09/15 10:30:37;;;;;;;9.18;6.25;;;20.50;99.90;;;;;;4937536;29;20057;-70
2023/09/15 10:33:07;;;;;;;11.30;5.97;;;20.50;99.90;;;;;;4940859;29;20020;-70
2023/09/15 10:35:33;;;;;;;9.73;6.32;;;20.60;99.90;;;;;;4955015;28;20031;-70
2023/09/15 10:38:05;;;;;;;10.27;6.28;;;20.60;99.90;;;;;;4955331;28;20027;-72
2023/09/15 10:40:47;;;;;;;10.30;6.32;;;20.60;99.90;;;;;;4951937;28;20103;-70
2023/09/15 10:43:13;;;;;;;12.10;6.43;;;20.70;99.90;;;;;;4956956;28;20435;-70
2023/09/15 10:45:39;;;;;;;8.15;5.95;;;20.80;99.90;;;;;;4949948;28;20035;-71
2023/09/15 10:48:05;;;;;;;11.98;5.63;;;20.80;99.90;;;;;;4950295;28;20381;-71
2023/09/15 10:50:31;;;;;;;8.60;6.10;;;20.90;99.90;;;;;;4954673;28;20382;-71
2023/09/15 10:53:09;;;;;;;11.75;5.50;;;20.90;99.90;;;;;;4953406;28;20081;-71
2023/09/15 10:55:35;;;;;;;8.65;6.22;;;21.00;99.90;;;;;;4953826;28;20485;-71
2023/09/15 10:58:03;;;;;;;8.35;5.35;;;21.10;99.90;;;;;;4954315;28;20038;-71
2023/09/15 11:00:30;;;;;;;11.85;5.43;;;21.20;99.90;;;;;;4952282;28;20074;-70
2023/09/15 11:02:56;;;;;;;7.97;5.72;;;21.30;99.90;;;;;;4948611;28;21197;-70
2023/09/15 11:05:22;;;;;;;8.15;5.72;;;21.30;99.90;;;;;;4951108;28;20031;-70
2023/09/15 11:07:49;;;;;;;10.10;5.82;;;21.40;99.90;;;;;;4951521;28;20182;-70
2023/09/15 11:10:14;;;;;;;8.30;5.15;;;21.50;99.90;;;;;;4949529;28;20039;-71
2023/09/15 11:12:40;;;;;;;8.13;5.28;;;21.50;99.90;;;;;;4951884;28;20110;-71
2023/09/15 11:15:07;;;;;;;8.77;5.07;;;21.60;99.90;;;;;;4958724;28;20105;-70
2023/09/15 11:17:33;;;;;;;10.75;5.45;;;21.70;99.90;;;;;;4952977;28;20036;-70
2023/09/15 11:20:04;;;;;;;9.50;5.63;;;21.70;99.90;;;;;;4951061;28;20089;-70
2023/09/15 11:22:29;;;;;;;8.57;5.40;;;21.80;99.90;;;;;;4957096;28;20461;-70
2023/09/15 11:24:56;;;;;;;7.63;5.82;;;21.80;99.90;;;;;;4951449;28;20027;-71
2023/09/15 11:27:22;;;;;;;7.60;5.03;;;21.80;99.90;;;;;;4954277;28;20627;-69
2023/09/15 11:29:47;;;;;;;8.65;5.88;;;21.80;99.90;;;;;;4948188;28;20035;-69
2023/09/15 11:32:13;;;;;;;7.85;5.18;;;21.90;99.90;;;;;;4943330;28;20023;-71
2023/09/15 11:34:39;;;;;;;8.85;4.97;;;21.90;99.90;;;;;;4950669;28;20035;-70
2023/09/15 11:37:05;;;;;;;9.48;5.53;;;22.10;99.90;;;;;;4951770;28;20401;-70
2023/09/15 11:39:30;;;;;;;8.82;5.53;;;22.10;99.90;;;;;;4951583;28;20059;-69
2023/09/15 11:41:56;;;;;;;5.50;4.57;;;22.10;99.90;;;;;;4951053;28;20039;-69
2023/09/15 11:44:26;;;;;;;6.72;5.15;;;22.20;99.90;;;;;;4955108;28;20066;-69
2023/09/15 11:46:55;;;;;;;8.73;6.03;;;22.20;99.90;;;;;;4953058;28;20529;-70
2023/09/15 11:49:22;;;;;;;9.15;5.88;;;22.20;99.90;;;;;;4959430;28;20100;-70
2023/09/15 11:51:49;;;;;;;8.63;4.97;;;22.20;99.90;;;;;;4959774;28;20023;-70
2023/09/15 11:54:15;;;;;;;6.43;4.57;;;22.20;99.90;;;;;;4949483;28;20486;-70
2023/09/15 11:56:42;;;;;;;6.88;4.80;;;22.20;99.90;;;;;;4968513;28;20027;-72
2023/09/15 11:59:08;;;;;;;8.60;4.93;;;22.30;99.90;;;;;;4950234;28;20042;-71
2023/09/15 12:01:36;;;;;;;8.18;5.07;;;22.50;99.90;;;;;;4947362;28;20027;-73
2023/09/15 12:04:03;;;;;;;5.72;4.43;;;22.50;99.90;;;;;;4948171;28;20368;-71
2023/09/15 12:06:30;;;;;;;6.60;4.65;;;22.50;99.90;;;;;;4946330;28;20066;-72
2023/09/15 12:08:56;;;;;;;7.82;4.70;;;22.50;99.90;;;;;;4945459;28;20024;-71
2023/09/15 12:11:23;;;;;;;5.90;4.40;;;22.50;99.90;;;;;;4940520;28;20026;-71
2023/09/15 12:13:52;;;;;;;7.63;5.22;;;22.60;99.90;;;;;;4947427;28;20513;-72
2023/09/15 12:16:24;;;;;;;8.13;4.88;;;22.70;99.90;;;;;;4946421;28;20046;-72
2023/09/15 12:18:51;;;;;;;6.32;4.88;;;22.70;99.90;;;;;;4948475;28;20110;-71
2023/09/15 12:21:16;;;;;;;6.60;4.47;;;22.80;99.90;;;;;;4947993;28;20034;-72
2023/09/15 12:23:43;;;;;;;7.75;4.65;;;22.80;99.90;;;;;;4945381;28;20039;-70
2023/09/15 12:26:09;;;;;;;10.77;4.95;;;22.90;99.90;;;;;;4952217;28;20038;-72
2023/09/15 12:28:35;;;;;;;6.50;5.43;;;22.90;99.90;;;;;;4947625;28;20035;-72
2023/09/15 12:31:01;;;;;;;6.18;4.75;;;23.00;99.90;;;;;;4947157;28;20030;-72
2023/09/15 12:33:28;;;;;;;8.15;4.07;;;23.00;99.90;;;;;;4966488;28;20023;-70
2023/09/15 12:35:54;;;;;;;6.80;4.15;;;23.00;99.90;;;;;;4943424;28;20035;-70
2023/09/15 12:38:19;;;;;;;6.13;4.45;;;23.10;99.90;;;;;;4945802;28;20043;-70
2023/09/15 12:40:50;;;;;;;5.03;4.40;;;23.10;99.90;;;;;;4952715;29;20031;-71